Time;durP1;ratioP1;P1;durP2;ratioP2;P2;SDS_P1;SDS_P2;PMS_P1;PMS_P2;Temp;Humidity;BMP_temperature;BMP_pressure;BME280_temperature;BME280_humidity;BME280_pressure;Samples;Min_cycle;Max_cycle;Signal;HPM_P1;HPM_P2
2021/03/29 00:00:28;;;;;;;13.02;2.63;;;12.90;87.10;;;;;;5045317;28;20790;-75
2021/03/29 00:02:54;;;;;;;11.52;2.22;;;12.90;87.10;;;;;;5044592;28;20482;-75
2021/03/29 00:05:23;;;;;;;10.50;2.67;;;12.90;87.20;;;;;;5047043;28;20825;-74
2021/03/29 00:07:54;;;;;;;12.67;2.53;;;12.90;87.10;;;;;;5043773;28;20490;-75
2021/03/29 00:10:21;;;;;;;10.70;2.30;;;12.90;87.20;;;;;;5045862;28;20428;-75
2021/03/29 00:12:50;;;;;;;11.73;2.60;;;12.90;87.20;;;;;;5042989;28;20433;-75
2021/03/29 00:15:22;;;;;;;11.88;2.35;;;12.90;87.20;;;;;;5043877;28;20443;-75
2021/03/29 00:17:49;;;;;;;11.68;2.55;;;12.90;87.20;;;;;;5045284;28;20436;-75
2021/03/29 00:20:19;;;;;;;13.52;2.83;;;12.90;87.30;;;;;;5045483;28;20524;-74
2021/03/29 00:22:45;;;;;;;12.35;2.40;;;12.90;87.40;;;;;;5044709;28;20428;-74
2021/03/29 00:25:13;;;;;;;12.00;2.47;;;12.90;87.50;;;;;;5044325;28;20432;-74
2021/03/29 00:27:39;;;;;;;10.47;2.43;;;12.90;87.60;;;;;;5043055;28;20905;-74
2021/03/29 00:30:09;;;;;;;11.68;2.40;;;12.90;87.70;;;;;;5044132;28;20433;-75
2021/03/29 00:32:38;;;;;;;11.50;2.60;;;12.80;88.40;;;;;;5028042;28;20522;-74
2021/03/29 00:35:06;;;;;;;11.88;2.50;;;12.90;87.90;;;;;;5047578;28;20425;-74
2021/03/29 00:37:33;;;;;;;12.30;2.40;;;12.80;88.00;;;;;;5027721;28;20413;-74
2021/03/29 00:40:00;;;;;;;12.75;2.60;;;12.80;88.20;;;;;;5044219;28;20429;-75
2021/03/29 00:42:27;;;;;;;9.05;2.63;;;12.80;88.40;;;;;;5030174;28;20921;-75
2021/03/29 00:44:54;;;;;;;10.75;2.38;;;12.80;88.50;;;;;;5044148;28;20937;-73
2021/03/29 00:47:22;;;;;;;11.80;2.67;;;12.80;88.60;;;;;;5025737;28;20925;-74
2021/03/29 00:49:49;;;;;;;10.77;2.60;;;12.80;88.80;;;;;;5044285;28;20417;-74
2021/03/29 00:52:17;;;;;;;10.23;2.50;;;12.70;88.90;;;;;;5036642;28;20440;-74
2021/03/29 00:54:44;;;;;;;13.90;2.60;;;12.70;89.10;;;;;;5039654;28;20433;-74
2021/03/29 00:57:12;;;;;;;12.70;2.73;;;12.70;89.20;;;;;;5044538;28;20436;-74
2021/03/29 00:59:38;;;;;;;13.30;2.97;;;12.70;89.40;;;;;;5041051;28;20429;-74
2021/03/29 01:02:06;;;;;;;13.07;3.00;;;12.70;89.50;;;;;;5045631;28;20436;-74
2021/03/29 01:04:33;;;;;;;12.03;2.60;;;12.70;89.70;;;;;;5041265;28;20425;-74
2021/03/29 01:07:00;;;;;;;9.77;2.63;;;12.60;89.70;;;;;;5046201;28;20429;-74
2021/03/29 01:09:28;;;;;;;13.52;3.05;;;12.60;89.90;;;;;;5043426;28;20905;-75
2021/03/29 01:11:57;;;;;;;15.90;3.10;;;12.60;90.00;;;;;;5045348;28;20459;-74
2021/03/29 01:14:26;;;;;;;10.85;2.90;;;12.60;90.00;;;;;;5043980;28;20431;-74
2021/03/29 01:16:58;;;;;;;15.40;3.05;;;12.60;90.00;;;;;;5044527;28;20437;-73
2021/03/29 01:19:47;;;;;;;14.18;2.90;;;12.50;90.00;;;;;;5044011;28;20429;-73
2021/03/29 01:22:17;;;;;;;13.52;3.10;;;12.50;90.10;;;;;;5045454;28;20429;-75
2021/03/29 01:24:52;;;;;;;15.75;3.15;;;12.50;90.20;;;;;;5026605;28;20794;-74
2021/03/29 01:27:27;;;;;;;14.13;3.47;;;12.50;90.30;;;;;;5027039;28;20913;-73
2021/03/29 01:29:55;;;;;;;16.73;3.77;;;12.50;90.40;;;;;;5026469;28;20523;-74
2021/03/29 01:32:23;;;;;;;13.65;3.10;;;12.40;90.50;;;;;;5044938;28;20429;-73
2021/03/29 01:34:52;;;;;;;15.68;3.38;;;12.30;90.60;;;;;;5043684;28;20432;-75
2021/03/29 01:37:19;;;;;;;16.52;3.65;;;12.30;90.70;;;;;;5046132;28;20416;-74
2021/03/29 01:39:48;;;;;;;19.40;3.60;;;12.20;90.90;;;;;;5047880;28;20452;-73
2021/03/29 01:42:15;;;;;;;14.32;3.58;;;12.20;91.00;;;;;;5046928;28;20424;-73
2021/03/29 01:44:44;;;;;;;14.23;3.37;;;12.20;91.20;;;;;;5044715;28;20421;-74
2021/03/29 01:47:10;;;;;;;17.15;4.22;;;12.10;91.30;;;;;;5045654;28;20427;-74
2021/03/29 01:49:37;;;;;;;15.73;3.47;;;12.10;91.40;;;;;;5048847;28;20432;-74
2021/03/29 01:52:05;;;;;;;14.90;3.43;;;12.10;91.60;;;;;;5047036;28;20442;-75
2021/03/29 01:54:33;;;;;;;15.23;3.72;;;12.00;91.60;;;;;;5047151;28;20429;-74
2021/03/29 01:57:03;;;;;;;18.58;3.85;;;12.00;91.80;;;;;;5028323;28;20413;-75
2021/03/29 01:59:29;;;;;;;17.38;3.47;;;12.00;91.90;;;;;;5046947;28;20429;-75
2021/03/29 02:01:57;;;;;;;16.80;3.75;;;12.00;92.10;;;;;;5046383;28;20425;-75
2021/03/29 02:04:24;;;;;;;14.88;3.80;;;12.00;92.20;;;;;;5033161;28;20791;-74
2021/03/29 02:06:50;;;;;;;15.95;3.60;;;11.90;92.30;;;;;;5048904;28;20452;-74
2021/03/29 02:09:17;;;;;;;16.45;3.65;;;11.90;92.40;;;;;;5047815;28;20421;-74
2021/03/29 02:11:44;;;;;;;20.80;3.97;;;11.90;92.50;;;;;;5049231;28;20429;-75
2021/03/29 02:14:10;;;;;;;19.08;3.92;;;11.90;92.60;;;;;;5046613;28;20424;-74
2021/03/29 02:16:38;;;;;;;18.95;4.13;;;11.90;92.70;;;;;;5046714;28;20447;-74
2021/03/29 02:19:06;;;;;;;15.70;3.55;;;11.90;92.80;;;;;;5045147;28;20425;-74
2021/03/29 02:21:36;;;;;;;16.67;3.50;;;11.80;92.80;;;;;;5047984;28;20933;-74
2021/03/29 02:24:05;;;;;;;21.10;3.95;;;11.80;92.90;;;;;;5046224;28;20433;-74
2021/03/29 02:26:34;;;;;;;19.05;3.80;;;11.80;93.10;;;;;;5047373;28;20513;-74
2021/03/29 02:29:01;;;;;;;17.90;4.00;;;11.80;93.20;;;;;;5028703;28;20440;-74
2021/03/29 02:31:28;;;;;;;18.38;3.97;;;11.80;93.30;;;;;;5045974;28;20439;-74
2021/03/29 02:33:57;;;;;;;19.55;4.10;;;11.80;93.30;;;;;;5046823;28;20435;-74
2021/03/29 02:36:25;;;;;;;16.10;4.37;;;11.80;93.40;;;;;;5045972;28;20429;-74
2021/03/29 02:38:52;;;;;;;17.17;3.90;;;11.80;93.50;;;;;;5045548;28;20429;-74
2021/03/29 02:41:22;;;;;;;19.37;4.10;;;11.80;93.50;;;;;;5045103;28;20479;-73
2021/03/29 02:43:49;;;;;;;16.73;3.90;;;11.80;93.60;;;;;;5043884;28;20824;-72
2021/03/29 02:46:18;;;;;;;15.20;3.65;;;11.80;93.70;;;;;;5029623;28;20821;-75
2021/03/29 02:48:46;;;;;;;16.35;3.42;;;11.80;93.70;;;;;;5039608;28;21027;-75
2021/03/29 02:51:14;;;;;;;18.08;4.05;;;11.70;93.80;;;;;;5024693;28;20430;-74
2021/03/29 02:53:49;;;;;;;16.20;3.72;;;11.70;94.00;;;;;;5022417;28;20447;-74
2021/03/29 02:56:18;;;;;;;19.52;3.70;;;11.70;94.00;;;;;;5025981;28;20814;-73
2021/03/29 02:58:49;;;;;;;13.82;3.65;;;11.70;94.10;;;;;;5023995;28;20517;-76
2021/03/29 03:01:16;;;;;;;21.02;4.00;;;11.70;94.20;;;;;;5023637;28;20442;-73
2021/03/29 03:03:44;;;;;;;18.20;3.67;;;11.70;94.30;;;;;;5027152;28;20936;-74
2021/03/29 03:06:12;;;;;;;17.63;3.50;;;11.70;94.40;;;;;;5023418;28;20432;-74
2021/03/29 03:08:39;;;;;;;15.63;3.53;;;11.70;94.50;;;;;;5020418;28;20965;-75
2021/03/29 03:11:10;;;;;;;18.27;3.72;;;11.70;94.60;;;;;;5026216;28;20422;-75
2021/03/29 03:13:38;;;;;;;16.60;3.80;;;11.70;94.60;;;;;;5026371;28;20433;-74
2021/03/29 03:16:06;;;;;;;22.35;4.07;;;11.70;94.70;;;;;;5024102;28;20437;-75
2021/03/29 03:18:33;;;;;;;17.42;3.50;;;11.70;94.80;;;;;;5026420;28;20429;-74
2021/03/29 03:20:59;;;;;;;16.63;3.40;;;11.70;94.80;;;;;;5027809;28;20423;-73
2021/03/29 03:23:25;;;;;;;15.82;3.40;;;11.70;94.90;;;;;;5025659;28;20929;-75
2021/03/29 03:25:53;;;;;;;22.85;4.20;;;11.70;94.90;;;;;;5025934;28;20410;-75
2021/03/29 03:28:23;;;;;;;14.57;3.30;;;11.70;95.00;;;;;;5025553;28;20462;-74
2021/03/29 03:30:52;;;;;;;14.25;3.10;;;11.70;95.10;;;;;;5027604;28;20422;-74
2021/03/29 03:33:22;;;;;;;16.50;3.17;;;11.70;95.10;;;;;;5024788;28;20434;-74
2021/03/29 03:35:50;;;;;;;17.77;3.50;;;11.70;95.10;;;;;;5025608;28;20427;-75
2021/03/29 03:38:20;;;;;;;17.15;3.47;;;11.70;95.10;;;;;;5025624;28;20431;-74
2021/03/29 03:40:51;;;;;;;15.57;3.60;;;11.70;95.10;;;;;;5021883;28;20425;-73
2021/03/29 03:43:21;;;;;;;17.48;3.47;;;11.70;95.10;;;;;;5026556;28;20465;-74
2021/03/29 03:45:50;;;;;;;16.70;3.65;;;11.70;95.20;;;;;;5023832;28;20446;-74
2021/03/29 03:48:18;;;;;;;14.77;3.27;;;11.80;95.20;;;;;;5024339;28;20489;-75
2021/03/29 03:50:47;;;;;;;16.63;3.38;;;11.70;95.20;;;;;;5024083;28;20431;-74
2021/03/29 03:53:14;;;;;;;15.02;3.28;;;11.70;95.20;;;;;;5026172;28;20954;-74
2021/03/29 03:55:41;;;;;;;19.27;3.60;;;11.70;95.20;;;;;;5025722;28;20442;-76
2021/03/29 03:58:10;;;;;;;19.77;3.65;;;11.80;95.20;;;;;;5023177;28;20426;-73
2021/03/29 04:00:38;;;;;;;17.63;3.60;;;11.80;95.20;;;;;;5023094;28;20517;-74
2021/03/29 04:03:04;;;;;;;15.07;3.10;;;11.80;95.20;;;;;;5020192;28;20493;-74
2021/03/29 04:05:31;;;;;;;14.60;3.13;;;11.80;95.20;;;;;;5023368;28;21233;-74
2021/03/29 04:07:59;;;;;;;17.05;3.60;;;11.80;95.20;;;;;;5022703;28;20422;-74
2021/03/29 04:10:36;;;;;;;15.73;3.40;;;11.80;95.20;;;;;;5025002;28;20445;-74
2021/03/29 04:13:03;;;;;;;20.70;3.10;;;11.90;95.20;;;;;;5025325;28;20445;-75
2021/03/29 04:15:30;;;;;;;16.90;3.20;;;11.90;95.30;;;;;;5025661;28;21021;-74
2021/03/29 04:17:57;;;;;;;24.02;3.70;;;11.90;95.30;;;;;;5019779;28;20445;-73
2021/03/29 04:20:23;;;;;;;18.83;3.37;;;11.90;95.30;;;;;;5021227;28;20422;-75
2021/03/29 04:22:51;;;;;;;16.07;3.20;;;11.90;95.30;;;;;;5022822;28;20500;-74
2021/03/29 04:25:17;;;;;;;19.70;3.67;;;11.90;95.30;;;;;;5017747;28;20431;-73
2021/03/29 04:27:44;;;;;;;16.02;3.15;;;11.90;95.30;;;;;;5023986;28;20788;-75
2021/03/29 04:30:12;;;;;;;17.10;3.45;;;11.90;95.30;;;;;;5026101;28;20509;-75
2021/03/29 04:32:40;;;;;;;14.50;3.08;;;11.90;95.30;;;;;;5024860;28;20440;-75
2021/03/29 04:35:09;;;;;;;21.98;3.70;;;11.90;95.40;;;;;;5025001;28;20425;-75
2021/03/29 04:37:35;;;;;;;16.73;3.30;;;11.90;95.50;;;;;;5022456;28;20433;-75
2021/03/29 04:40:02;;;;;;;16.70;3.23;;;11.90;95.50;;;;;;5023463;28;20426;-76
2021/03/29 04:42:28;;;;;;;16.23;3.28;;;11.90;95.50;;;;;;5022561;28;20915;-75
2021/03/29 04:44:54;;;;;;;15.45;3.20;;;11.90;95.60;;;;;;5025817;28;20445;-74
2021/03/29 04:47:21;;;;;;;23.63;3.67;;;11.90;95.50;;;;;;5024682;28;20419;-75
2021/03/29 04:49:47;;;;;;;21.08;3.53;;;11.90;95.60;;;;;;5029801;28;20831;-75
2021/03/29 04:52:14;;;;;;;17.75;3.35;;;11.90;95.70;;;;;;5042628;28;20426;-76
2021/03/29 04:54:40;;;;;;;18.58;3.53;;;11.90;95.80;;;;;;5045543;28;20425;-75
2021/03/29 04:57:07;;;;;;;20.63;3.33;;;11.90;95.80;;;;;;5043439;28;20425;-75
2021/03/29 04:59:34;;;;;;;16.20;3.40;;;11.90;95.80;;;;;;5044862;28;20429;-75
2021/03/29 05:02:00;;;;;;;16.88;3.33;;;11.90;95.90;;;;;;5043486;28;20436;-75
2021/03/29 05:04:27;;;;;;;17.35;3.40;;;11.90;95.90;;;;;;5027421;28;20433;-74
2021/03/29 05:06:53;;;;;;;20.58;3.47;;;11.80;96.00;;;;;;5040439;28;20430;-75
2021/03/29 05:09:20;;;;;;;20.75;4.38;;;11.90;96.00;;;;;;5045187;28;20417;-75
2021/03/29 05:11:48;;;;;;;25.25;3.83;;;11.90;96.10;;;;;;5027654;28;20433;-75
2021/03/29 05:14:15;;;;;;;20.25;3.80;;;11.90;96.20;;;;;;5048689;28;20421;-75
2021/03/29 05:16:42;;;;;;;17.93;3.20;;;11.80;96.20;;;;;;5049051;28;20486;-76
2021/03/29 05:19:09;;;;;;;18.90;3.45;;;11.80;96.30;;;;;;5048839;28;20428;-76
2021/03/29 05:21:36;;;;;;;21.92;3.42;;;11.80;96.50;;;;;;5048855;28;20435;-75
2021/03/29 05:24:02;;;;;;;21.30;3.75;;;11.80;96.60;;;;;;5032495;28;20937;-75
2021/03/29 05:26:29;;;;;;;20.08;3.80;;;11.80;96.80;;;;;;5047485;28;20762;-73
2021/03/29 05:28:56;;;;;;;17.75;3.60;;;11.80;96.90;;;;;;5032176;28;20778;-73
2021/03/29 05:31:22;;;;;;;20.10;3.70;;;11.70;97.10;;;;;;5046666;28;20459;-74
2021/03/29 05:33:49;;;;;;;19.48;3.58;;;11.70;97.50;;;;;;5049862;28;20436;-74
2021/03/29 05:36:16;;;;;;;19.10;4.20;;;11.70;97.30;;;;;;5030465;28;20432;-74
2021/03/29 05:38:43;;;;;;;22.30;4.20;;;11.70;97.40;;;;;;5045156;28;20428;-73
2021/03/29 05:41:11;;;;;;;17.02;3.95;;;11.70;97.50;;;;;;5045556;28;20463;-73
2021/03/29 05:43:39;;;;;;;20.80;3.55;;;11.70;97.50;;;;;;5050903;28;20421;-74
2021/03/29 05:46:06;;;;;;;24.23;4.40;;;11.70;97.50;;;;;;5032765;28;20945;-73
2021/03/29 05:48:32;;;;;;;21.80;3.70;;;11.70;97.60;;;;;;5050604;28;20428;-72
2021/03/29 05:51:00;;;;;;;19.33;3.70;;;11.70;97.70;;;;;;5050480;28;20486;-75
2021/03/29 05:53:27;;;;;;;21.65;3.92;;;11.70;97.70;;;;;;5050009;28;20499;-74
2021/03/29 05:55:53;;;;;;;21.38;3.60;;;11.70;97.80;;;;;;5050755;28;20416;-73
2021/03/29 05:58:32;;;;;;;21.25;3.83;;;11.70;97.90;;;;;;5027954;28;20432;-74
2021/03/29 06:00:59;;;;;;;22.70;4.10;;;11.70;98.00;;;;;;5030086;28;20437;-74
2021/03/29 06:03:28;;;;;;;21.67;3.63;;;11.70;98.20;;;;;;5049644;28;20425;-74
2021/03/29 06:05:57;;;;;;;25.45;4.55;;;11.70;98.40;;;;;;5045331;28;20431;-74
2021/03/29 06:08:24;;;;;;;21.83;4.15;;;11.70;98.40;;;;;;5032465;28;20430;-74
2021/03/29 06:10:53;;;;;;;23.10;4.63;;;11.70;98.50;;;;;;5032332;28;20948;-75
2021/03/29 06:13:23;;;;;;;28.85;4.75;;;11.60;98.70;;;;;;5050391;28;20414;-74
2021/03/29 06:16:08;;;;;;;23.17;4.00;;;11.60;98.70;;;;;;5045792;28;20401;-74
2021/03/29 06:18:36;;;;;;;24.20;4.20;;;11.60;98.90;;;;;;5027639;28;20424;-74
2021/03/29 06:21:08;;;;;;;26.77;4.40;;;11.60;99.10;;;;;;5050364;28;20854;-74
2021/03/29 06:23:36;;;;;;;28.70;4.68;;;11.60;99.20;;;;;;5050270;28;21131;-74
2021/03/29 06:26:20;;;;;;;26.20;4.40;;;11.60;99.40;;;;;;5049954;28;20420;-74
2021/03/29 06:28:47;;;;;;;24.33;4.80;;;11.60;99.40;;;;;;5048912;28;20419;-74
2021/03/29 06:31:23;;;;;;;23.88;4.20;;;11.60;99.90;;;;;;5050517;28;20425;-76
2021/03/29 06:33:51;;;;;;;27.45;4.60;;;11.60;99.60;;;;;;5030490;28;20471;-75
2021/03/29 06:36:30;;;;;;;25.33;4.05;;;11.60;99.70;;;;;;5027630;28;20432;-76
2021/03/29 06:39:10;;;;;;;25.73;4.50;;;11.60;99.80;;;;;;5045494;28;20537;-75
2021/03/29 06:41:36;;;;;;;32.10;4.38;;;11.60;99.80;;;;;;5032209;28;20499;-78
2021/03/29 06:44:03;;;;;;;23.95;4.50;;;11.60;99.90;;;;;;5039761;28;20494;-76
2021/03/29 06:46:31;;;;;;;27.50;4.70;;;11.60;99.90;;;;;;5027640;28;20437;-75
2021/03/29 06:49:00;;;;;;;29.20;4.80;;;11.60;99.90;;;;;;5047867;28;20432;-74
2021/03/29 06:51:29;;;;;;;23.38;4.55;;;11.60;99.90;;;;;;5027710;28;20440;-75
2021/03/29 06:53:57;;;;;;;28.35;4.97;;;11.60;99.90;;;;;;5034663;28;20437;-75
2021/03/29 06:56:30;;;;;;;24.40;4.90;;;11.60;99.90;;;;;;5049285;28;20417;-74
2021/03/29 06:59:06;;;;;;;28.05;5.00;;;11.60;99.90;;;;;;5049380;28;20437;-73
2021/03/29 07:01:35;;;;;;;28.60;5.03;;;11.60;99.90;;;;;;5026124;28;20795;-74
2021/03/29 07:04:03;;;;;;;26.85;4.90;;;11.60;99.90;;;;;;5029505;28;21011;-74
2021/03/29 07:06:32;;;;;;;25.13;4.50;;;11.60;99.90;;;;;;5050471;28;20488;-75
2021/03/29 07:09:04;;;;;;;29.15;5.03;;;11.60;99.90;;;;;;5050014;28;20417;-75
2021/03/29 07:11:30;;;;;;;29.10;4.37;;;11.60;99.90;;;;;;5049375;28;21010;-75
2021/03/29 07:13:58;;;;;;;31.67;5.45;;;11.70;99.90;;;;;;5048476;28;20448;-74
2021/03/29 07:16:27;;;;;;;27.93;5.20;;;11.70;99.90;;;;;;5047711;28;20916;-74
2021/03/29 07:18:57;;;;;;;24.53;4.73;;;11.70;99.90;;;;;;5044088;28;20436;-75
2021/03/29 07:21:24;;;;;;;25.48;4.90;;;11.80;99.90;;;;;;5047640;28;20413;-77
2021/03/29 07:23:51;;;;;;;24.65;4.82;;;11.80;99.90;;;;;;5030892;28;20513;-73
2021/03/29 07:29:16;;;;;;;25.83;4.45;;;11.80;99.90;;;;;;5127096;22;20817;-80
2021/03/29 07:31:43;;;;;;;25.00;4.80;;;11.80;99.90;;;;;;5037259;28;20448;-77
2021/03/29 07:34:11;;;;;;;26.37;4.80;;;11.90;99.90;;;;;;5047248;28;20560;-75
2021/03/29 07:36:43;;;;;;;29.02;5.13;;;11.90;99.90;;;;;;5056654;28;20430;-76
2021/03/29 07:39:10;;;;;;;24.15;4.53;;;11.90;99.90;;;;;;5058923;28;20893;-73
2021/03/29 07:41:37;;;;;;;24.83;4.43;;;12.00;99.90;;;;;;5057222;28;20424;-73
2021/03/29 07:44:14;;;;;;;27.42;4.97;;;12.00;99.90;;;;;;5059084;28;20417;-73
2021/03/29 07:46:42;;;;;;;24.80;4.93;;;12.00;99.90;;;;;;5041398;28;20431;-73
2021/03/29 07:49:46;;;;;;;23.93;4.70;;;12.10;99.80;;;;;;5056414;28;20432;-74
2021/03/29 07:52:28;;;;;;;33.83;5.37;;;12.10;99.70;;;;;;5058796;28;20962;-73
2021/03/29 07:54:57;;;;;;;25.05;4.95;;;12.10;99.50;;;;;;5050629;28;20856;-72
2021/03/29 07:58:00;;;;;;;34.00;5.10;;;12.10;99.60;;;;;;5057007;28;20421;-75
2021/03/29 08:00:39;;;;;;;23.20;4.70;;;12.10;99.80;;;;;;5058724;28;20903;-75
2021/03/29 08:03:37;;;;;;;30.10;4.82;;;12.10;99.80;;;;;;5052015;28;20900;-74
2021/03/29 08:06:08;;;;;;;30.48;4.90;;;12.20;99.70;;;;;;5067998;28;20768;-74
2021/03/29 08:08:38;;;;;;;27.15;4.60;;;12.20;99.60;;;;;;5059307;28;20483;-74
2021/03/29 08:11:09;;;;;;;26.60;5.00;;;12.20;99.50;;;;;;5046276;28;20415;-75
2021/03/29 08:13:35;;;;;;;26.70;4.65;;;12.20;99.40;;;;;;5058569;28;20425;-73
2021/03/29 08:16:03;;;;;;;28.10;5.30;;;12.20;99.40;;;;;;5056082;28;20742;-73
2021/03/29 08:18:29;;;;;;;29.23;5.27;;;12.30;99.40;;;;;;5060016;28;20419;-73
2021/03/29 08:20:56;;;;;;;27.38;5.60;;;12.30;99.40;;;;;;5057958;28;20778;-73
2021/03/29 08:23:33;;;;;;;24.88;5.28;;;12.30;99.20;;;;;;5061095;28;20768;-74
2021/03/29 08:26:14;;;;;;;29.60;5.30;;;12.30;99.20;;;;;;5046218;28;20434;-73
2021/03/29 08:29:20;;;;;;;26.90;5.22;;;12.30;99.30;;;;;;5056546;28;20431;-73
2021/03/29 08:32:15;;;;;;;31.08;5.70;;;12.40;99.40;;;;;;5055975;28;20421;-73
2021/03/29 08:34:45;;;;;;;31.17;5.90;;;12.40;99.40;;;;;;5031243;28;21137;-73
2021/03/29 08:37:13;;;;;;;31.23;5.45;;;12.40;99.40;;;;;;5062189;28;20415;-74
2021/03/29 08:39:43;;;;;;;28.58;5.72;;;12.40;99.40;;;;;;5041545;28;20914;-73
2021/03/29 08:42:11;;;;;;;31.50;5.90;;;12.40;99.50;;;;;;5054483;28;20582;-73
2021/03/29 08:44:40;;;;;;;33.90;6.47;;;12.40;99.50;;;;;;5062283;28;20426;-74
2021/03/29 08:47:09;;;;;;;35.47;6.63;;;12.50;99.30;;;;;;5043530;28;20537;-73
2021/03/29 08:49:35;;;;;;;29.90;6.30;;;12.50;99.10;;;;;;5063327;28;20822;-74
2021/03/29 08:52:02;;;;;;;30.55;5.97;;;12.50;99.10;;;;;;5067291;28;20427;-75
2021/03/29 08:54:29;;;;;;;30.10;6.17;;;12.50;98.90;;;;;;5043155;28;20425;-75
2021/03/29 08:57:04;;;;;;;32.78;7.00;;;12.40;98.80;;;;;;5062447;28;20812;-74
2021/03/29 08:59:31;;;;;;;29.73;6.22;;;12.40;98.90;;;;;;5068140;28;20768;-75
2021/03/29 09:01:57;;;;;;;28.13;6.43;;;12.40;99.00;;;;;;5064708;28;20437;-75
2021/03/29 09:04:24;;;;;;;30.67;6.70;;;12.40;99.00;;;;;;5063554;28;20426;-74
2021/03/29 09:06:54;;;;;;;31.40;6.00;;;12.30;99.10;;;;;;5063138;28;20437;-76
2021/03/29 09:09:22;;;;;;;25.13;5.80;;;12.40;99.10;;;;;;5063149;28;20535;-75
2021/03/29 09:11:50;;;;;;;30.15;5.97;;;12.40;99.00;;;;;;5063840;28;20423;-76
2021/03/29 09:14:20;;;;;;;32.13;6.25;;;12.40;99.00;;;;;;5054794;28;20431;-75
2021/03/29 09:16:47;;;;;;;29.00;6.00;;;12.50;98.90;;;;;;5060316;28;20430;-74
2021/03/29 09:19:15;;;;;;;30.80;6.10;;;12.50;98.90;;;;;;5040327;28;20419;-75
2021/03/29 09:21:42;;;;;;;31.83;6.10;;;12.50;98.90;;;;;;5059395;28;20433;-75
2021/03/29 09:24:16;;;;;;;35.60;6.07;;;12.60;98.60;;;;;;5062379;28;21020;-75
2021/03/29 09:26:43;;;;;;;34.05;6.00;;;12.50;98.40;;;;;;5060183;28;21306;-75
2021/03/29 09:29:32;;;;;;;34.10;6.10;;;12.50;98.40;;;;;;5059237;28;20749;-74
2021/03/29 09:32:06;;;;;;;30.83;5.65;;;12.50;98.50;;;;;;5058878;28;20429;-74
2021/03/29 09:34:33;;;;;;;36.47;6.13;;;12.60;98.80;;;;;;5059031;28;20501;-74
2021/03/29 09:36:59;;;;;;;28.17;5.55;;;12.60;98.40;;;;;;5059584;28;20427;-75
2021/03/29 09:39:29;;;;;;;26.60;5.82;;;12.60;98.00;;;;;;5065349;28;20438;-74
2021/03/29 09:41:55;;;;;;;31.38;5.60;;;12.60;97.90;;;;;;5040738;28;20583;-74
2021/03/29 09:44:30;;;;;;;41.88;5.72;;;12.60;98.00;;;;;;5063584;28;20423;-74
2021/03/29 09:46:58;;;;;;;25.10;5.50;;;12.60;98.10;;;;;;5059557;28;20427;-74
2021/03/29 09:49:25;;;;;;;31.67;4.95;;;12.70;98.30;;;;;;5058256;28;20469;-74
2021/03/29 09:52:01;;;;;;;33.47;6.00;;;12.80;98.00;;;;;;5062111;28;20508;-74
2021/03/29 09:54:29;;;;;;;33.00;5.30;;;12.80;97.80;;;;;;5058746;28;20431;-74
2021/03/29 09:56:58;;;;;;;26.70;5.57;;;12.90;97.40;;;;;;5058572;28;20456;-75
2021/03/29 09:59:26;;;;;;;26.92;5.15;;;12.90;97.30;;;;;;5060121;28;21218;-74
2021/03/29 10:01:53;;;;;;;26.67;6.18;;;12.80;97.00;;;;;;5055879;28;20482;-73
2021/03/29 10:04:20;;;;;;;33.25;5.47;;;12.80;97.20;;;;;;5041973;28;20447;-75
2021/03/29 10:06:54;;;;;;;26.73;5.28;;;12.80;97.30;;;;;;5057254;28;20424;-74
2021/03/29 10:09:33;;;;;;;24.38;5.40;;;12.90;97.10;;;;;;5061511;28;20474;-73
2021/03/29 10:12:01;;;;;;;32.95;5.65;;;12.90;97.00;;;;;;5045961;28;20423;-74
2021/03/29 10:14:36;;;;;;;27.27;5.20;;;13.00;96.90;;;;;;5049484;28;20806;-74
2021/03/29 10:17:13;;;;;;;30.38;5.50;;;13.10;96.60;;;;;;5056576;28;20444;-74
2021/03/29 10:19:40;;;;;;;24.17;5.45;;;13.10;96.50;;;;;;5058503;28;20545;-74
2021/03/29 10:22:10;;;;;;;25.70;5.22;;;13.10;96.40;;;;;;5057596;28;20439;-74
2021/03/29 10:24:55;;;;;;;27.17;5.00;;;13.10;96.10;;;;;;5056094;28;20421;-75
2021/03/29 10:27:21;;;;;;;28.00;4.97;;;13.10;96.10;;;;;;5037593;28;21362;-75
2021/03/29 10:29:49;;;;;;;27.30;5.47;;;13.00;96.00;;;;;;5054573;28;21518;-74
2021/03/29 10:32:17;;;;;;;18.85;4.70;;;13.00;96.20;;;;;;5055855;28;20788;-74
2021/03/29 10:34:44;;;;;;;26.07;5.37;;;13.00;96.30;;;;;;5060622;28;20497;-73
2021/03/29 10:37:23;;;;;;;25.65;5.47;;;13.10;96.50;;;;;;5061685;28;20432;-74
2021/03/29 10:39:50;;;;;;;28.17;5.18;;;13.10;96.10;;;;;;5063266;28;20934;-74
2021/03/29 10:42:18;;;;;;;27.10;5.35;;;13.10;96.00;;;;;;5058382;28;20797;-74
2021/03/29 10:44:44;;;;;;;25.88;5.35;;;13.10;96.10;;;;;;5063168;28;20945;-74
2021/03/29 10:47:13;;;;;;;26.17;4.97;;;13.10;96.00;;;;;;5055985;28;20423;-74
2021/03/29 10:49:40;;;;;;;29.03;5.60;;;13.20;95.70;;;;;;5059460;28;20471;-74
2021/03/29 10:52:07;;;;;;;26.00;5.25;;;13.20;95.70;;;;;;5055894;28;20433;-74
2021/03/29 10:54:33;;;;;;;25.15;5.13;;;13.20;96.00;;;;;;5060490;28;20477;-73
2021/03/29 10:57:02;;;;;;;22.60;5.28;;;13.30;95.70;;;;;;5043406;28;20423;-75
2021/03/29 10:59:28;;;;;;;23.50;4.85;;;13.30;95.40;;;;;;5060103;28;20467;-73
2021/03/29 11:01:54;;;;;;;20.45;4.95;;;13.40;95.30;;;;;;5063054;28;20795;-75
2021/03/29 11:04:22;;;;;;;25.35;4.95;;;13.40;95.20;;;;;;5059608;28;22886;-74
2021/03/29 11:06:48;;;;;;;29.33;5.68;;;13.50;94.80;;;;;;5058944;28;21005;-73
2021/03/29 11:09:14;;;;;;;23.70;5.18;;;13.50;94.80;;;;;;5058883;28;20423;-74
2021/03/29 11:11:41;;;;;;;25.02;5.30;;;13.60;94.80;;;;;;5054776;28;20431;-74
2021/03/29 11:14:07;;;;;;;27.23;5.30;;;13.60;94.70;;;;;;5043027;28;20423;-73
2021/03/29 11:16:34;;;;;;;27.92;5.78;;;13.70;93.90;;;;;;5056780;28;20459;-74
2021/03/29 11:19:00;;;;;;;21.08;5.05;;;13.70;93.90;;;;;;5055877;28;20428;-74
2021/03/29 11:21:29;;;;;;;25.05;4.97;;;13.70;94.20;;;;;;5057292;28;20431;-74
2021/03/29 11:23:56;;;;;;;24.88;4.95;;;13.70;93.80;;;;;;5057105;28;20883;-74
2021/03/29 11:26:22;;;;;;;25.40;5.60;;;13.80;93.70;;;;;;5054892;28;20431;-73
2021/03/29 11:28:48;;;;;;;24.57;5.10;;;13.90;93.70;;;;;;5055684;28;20451;-75
2021/03/29 11:31:15;;;;;;;25.27;5.38;;;13.90;93.60;;;;;;5062627;28;20438;-75
2021/03/29 11:33:42;;;;;;;25.63;5.38;;;14.00;93.30;;;;;;5060666;28;20433;-75
2021/03/29 11:36:08;;;;;;;23.30;5.65;;;14.10;92.70;;;;;;5055255;28;20429;-75
2021/03/29 11:38:37;;;;;;;25.20;5.75;;;14.00;92.60;;;;;;5035461;28;20429;-74
2021/03/29 11:41:04;;;;;;;21.10;5.53;;;14.00;92.50;;;;;;5043702;28;20423;-73
2021/03/29 11:43:30;;;;;;;23.27;5.10;;;14.00;92.70;;;;;;5059661;28;20545;-76
2021/03/29 11:45:56;;;;;;;20.40;4.57;;;14.10;92.50;;;;;;5060568;28;20442;-74
2021/03/29 11:48:23;;;;;;;23.80;4.95;;;14.10;92.00;;;;;;5053914;28;20432;-73
2021/03/29 11:50:49;;;;;;;24.67;5.20;;;14.10;91.70;;;;;;5057649;28;20833;-76
2021/03/29 11:53:18;;;;;;;17.85;4.32;;;14.20;91.80;;;;;;5043981;28;20514;-74
2021/03/29 11:55:45;;;;;;;24.83;4.85;;;14.30;91.70;;;;;;5051005;28;20819;-76
2021/03/29 11:58:12;;;;;;;22.25;4.70;;;14.40;91.00;;;;;;5052842;28;20913;-75
2021/03/29 12:00:50;;;;;;;20.63;4.88;;;14.40;90.80;;;;;;5060396;28;20426;-74
2021/03/29 12:03:22;;;;;;;24.93;4.70;;;14.50;90.50;;;;;;5056641;28;20449;-75
2021/03/29 12:05:51;;;;;;;20.33;4.57;;;14.50;90.40;;;;;;5058149;28;20522;-74
2021/03/29 12:08:27;;;;;;;22.80;4.33;;;14.60;90.10;;;;;;5058851;28;20427;-74
2021/03/29 12:13:44;;;;;;;18.75;4.00;;;14.80;88.90;;;;;;5001917;28;20431;-75
2021/03/29 12:16:11;;;;;;;21.60;3.80;;;14.90;87.40;;;;;;5059121;28;20459;-76
2021/03/29 12:18:42;;;;;;;21.23;3.95;;;15.00;86.90;;;;;;5062992;28;20421;-75
2021/03/29 12:21:14;;;;;;;23.23;4.55;;;15.00;86.50;;;;;;5040691;28;20775;-75
2021/03/29 12:23:44;;;;;;;19.52;3.67;;;15.10;86.30;;;;;;5057317;28;20431;-76
2021/03/29 12:26:12;;;;;;;22.42;4.28;;;15.20;85.20;;;;;;5042705;28;20430;-76
2021/03/29 12:28:43;;;;;;;14.20;3.70;;;15.30;84.70;;;;;;5059808;28;20430;-74
2021/03/29 12:31:10;;;;;;;24.77;4.38;;;15.40;82.90;;;;;;5060019;28;20430;-72
2021/03/29 12:33:36;;;;;;;19.83;4.40;;;15.50;82.50;;;;;;5059007;28;20771;-72
2021/03/29 12:36:03;;;;;;;21.23;4.30;;;15.60;81.60;;;;;;5056984;28;20424;-73
2021/03/29 12:38:33;;;;;;;22.67;3.90;;;15.60;80.90;;;;;;5036613;28;20446;-74
2021/03/29 12:41:03;;;;;;;31.60;4.60;;;15.70;80.90;;;;;;5054098;28;20429;-74
2021/03/29 12:43:37;;;;;;;19.85;5.00;;;15.80;79.80;;;;;;5055173;28;20437;-72
2021/03/29 12:46:06;;;;;;;21.20;4.68;;;15.90;78.90;;;;;;5054499;28;20514;-74
2021/03/29 12:48:34;;;;;;;19.10;4.63;;;15.90;78.80;;;;;;5059455;28;20441;-73
2021/03/29 12:51:02;;;;;;;21.42;5.30;;;16.00;79.10;;;;;;5055072;28;20431;-73